Time;durP1;ratioP1;P1;durP2;ratioP2;P2;SDS_P1;SDS_P2;PMS_P1;PMS_P2;Temp;Humidity;BMP_temperature;BMP_pressure;BME280_temperature;BME280_humidity;BME280_pressure;Samples;Min_cycle;Max_cycle;Signal;HPM_P1;HPM_P2
2021/11/29 00:01:33;;;;;;;;;;;;;;;3.08;72.76;98176.19;4974355;28;19965;-83
2021/11/29 00:03:59;;;;;;;;;;;;;;;3.07;73.00;98183.16;4983783;28;19925;-85
2021/11/29 00:06:24;;;;;;;;;;;;;;;3.09;73.00;98173.50;4984414;28;19922;-85
2021/11/29 00:08:50;;;;;;;;;;;;;;;3.11;72.99;98180.44;4983665;28;19919;-85
2021/11/29 00:11:15;;;;;;;;;;;;;;;3.12;72.92;98179.53;4983765;28;20338;-84
2021/11/29 00:13:41;;;;;;;;;;;;;;;3.15;72.93;98182.03;4982638;28;19937;-85
2021/11/29 00:16:06;;;;;;;;;;;;;;;3.15;73.02;98188.09;4983849;28;19941;-84
2021/11/29 00:18:32;;;;;;;;;;;;;;;3.18;73.13;98192.38;4983416;28;19925;-84
2021/11/29 00:20:57;;;;;;;;;;;;;;;3.20;73.15;98195.78;4983286;28;19918;-84
2021/11/29 00:23:23;;;;;;;;;;;;;;;3.20;73.23;98198.41;4965906;28;19918;-84
2021/11/29 00:25:48;;;;;;;;;;;;;;;3.22;73.25;98193.94;4983262;28;19937;-84
2021/11/29 00:28:14;;;;;;;;;;;;;;;3.25;73.38;98199.91;4982662;28;20004;-84
2021/11/29 00:30:40;;;;;;;;;;;;;;;3.26;73.35;98199.00;4966070;28;20029;-84
2021/11/29 00:33:08;;;;;;;;;;;;;;;3.28;73.51;98206.81;4983003;28;20322;-85
2021/11/29 00:35:33;;;;;;;;;;;;;;;3.30;73.54;98207.59;4983080;28;19964;-85
2021/11/29 00:37:58;;;;;;;;;;;;;;;3.33;73.89;98207.47;4983396;28;19957;-84
2021/11/29 00:40:23;;;;;;;;;;;;;;;3.30;73.51;98215.44;4965825;28;19918;-84
2021/11/29 00:42:49;;;;;;;;;;;;;;;3.34;73.71;98214.44;4981882;28;19930;-84
2021/11/29 00:45:14;;;;;;;;;;;;;;;3.34;73.72;98214.44;4983227;28;19955;-83
2021/11/29 04:13:46;;;;;;;;;;;;;;;3.56;93.16;98449.34;4997952;23;19930;-85
2021/11/29 04:16:15;;;;;;;;;;;;;;;3.50;92.60;98455.63;4955650;28;19922;-84
2021/11/29 04:18:41;;;;;;;;;;;;;;;3.43;92.41;98455.00;4955659;28;19973;-86
2021/11/29 04:21:06;;;;;;;;;;;;;;;3.37;91.94;98452.59;4955390;28;20365;-85
2021/11/29 04:23:32;;;;;;;;;;;;;;;3.40;91.68;98459.50;4938287;29;19921;-85
2021/11/29 04:26:00;;;;;;;;;;;;;;;3.32;91.35;98459.75;4955423;28;19918;-84
2021/11/29 04:28:25;;;;;;;;;;;;;;;3.25;91.09;98463.47;4954204;28;20061;-85
2021/11/29 04:30:51;;;;;;;;;;;;;;;3.24;90.79;98465.25;4955890;28;20391;-84
2021/11/29 04:33:16;;;;;;;;;;;;;;;3.18;90.13;98473.31;4955160;29;19925;-84
2021/11/29 04:35:42;;;;;;;;;;;;;;;3.17;89.80;98476.81;4955612;28;19925;-84
2021/11/29 04:38:07;;;;;;;;;;;;;;;3.13;89.10;98490.94;4955138;28;20025;-85
2021/11/29 04:40:32;;;;;;;;;;;;;;;3.02;88.76;98485.22;4955164;28;19926;-85
2021/11/29 04:42:58;;;;;;;;;;;;;;;3.09;88.76;98482.34;4953782;28;19929;-84
2021/11/29 04:45:23;;;;;;;;;;;;;;;2.97;88.02;98501.06;4955305;28;20058;-87
2021/11/29 04:47:48;;;;;;;;;;;;;;;2.97;87.55;98495.81;4937963;28;19919;-87
2021/11/29 04:50:14;;;;;;;;;;;;;;;2.89;87.21;98495.22;4954939;28;19922;-85
2021/11/29 04:52:39;;;;;;;;;;;;;;;2.82;86.65;98498.91;4954982;28;19923;-86
2021/11/29 04:55:05;;;;;;;;;;;;;;;2.77;85.93;98500.84;4954822;28;19930;-87
2021/11/29 04:57:30;;;;;;;;;;;;;;;2.69;85.41;98508.91;4953625;28;19925;-87
2021/11/29 04:59:56;;;;;;;;;;;;;;;2.73;84.80;98511.41;4937433;29;19922;-85
2021/11/29 05:02:21;;;;;;;;;;;;;;;2.85;87.36;98514.53;4954918;28;19921;-87
2021/11/29 05:04:46;;;;;;;;;;;;;;;2.96;89.98;98517.66;4954845;28;19923;-87
2021/11/29 05:07:15;;;;;;;;;;;;;;;2.96;90.79;98533.34;4954583;28;19914;-88
2021/11/29 05:09:42;;;;;;;;;;;;;;;2.85;91.16;98538.91;4954480;28;20325;-86
2021/11/29 05:12:08;;;;;;;;;;;;;;;2.88;91.28;98538.81;4953281;28;19926;-86
2021/11/29 05:14:33;;;;;;;;;;;;;;;2.76;91.32;98546.19;4954254;28;20386;-87
2021/11/29 05:16:58;;;;;;;;;;;;;;;2.76;91.18;98541.84;4954293;28;19930;-86
2021/11/29 05:19:24;;;;;;;;;;;;;;;2.68;91.24;98549.03;4954449;28;19926;-88
2021/11/29 05:21:49;;;;;;;;;;;;;;;2.66;90.84;98556.09;4954362;28;19922;-86
2021/11/29 05:24:14;;;;;;;;;;;;;;;2.61;90.48;98560.63;4954268;28;19930;-86
2021/11/29 05:26:39;;;;;;;;;;;;;;;2.62;90.18;98565.78;4953015;29;19926;-87
2021/11/29 05:29:05;;;;;;;;;;;;;;;2.57;90.15;98574.66;4954137;28;19965;-87
2021/11/29 05:31:30;;;;;;;;;;;;;;;2.52;90.04;98575.69;4954194;29;19926;-86
2021/11/29 05:33:55;;;;;;;;;;;;;;;2.50;89.81;98576.63;4954134;28;19997;-86
2021/11/29 05:36:21;;;;;;;;;;;;;;;2.51;89.44;98589.66;4954328;29;20397;-86
2021/11/29 05:38:46;;;;;;;;;;;;;;;2.49;88.90;98591.47;4954214;28;19969;-87
2021/11/29 05:41:12;;;;;;;;;;;;;;;2.42;88.80;98591.66;4953960;28;19922;-86
2021/11/29 05:43:37;;;;;;;;;;;;;;;2.41;88.59;98597.78;4950590;29;20273;-86
2021/11/29 05:46:02;;;;;;;;;;;;;;;2.36;88.21;98601.41;4936797;28;20365;-86
2021/11/29 05:48:29;;;;;;;;;;;;;;;2.36;87.79;98609.25;4936785;29;19923;-86
2021/11/29 05:50:55;;;;;;;;;;;;;;;2.32;87.64;98620.69;4936615;29;19962;-86
2021/11/29 05:53:20;;;;;;;;;;;;;;;2.30;87.47;98619.88;4954016;29;19969;-86
2021/11/29 05:55:45;;;;;;;;;;;;;;;2.32;87.23;98619.84;4936741;29;19926;-86
2021/11/29 05:58:11;;;;;;;;;;;;;;;2.24;87.19;98627.03;4935339;28;20374;-86
2021/11/29 06:00:36;;;;;;;;;;;;;;;2.22;86.77;98629.69;4936677;29;19925;-86
2021/11/29 06:03:03;;;;;;;;;;;;;;;2.17;86.49;98626.31;4936478;29;20408;-86
2021/11/29 06:05:29;;;;;;;;;;;;;;;2.13;86.55;98633.41;4936864;29;20017;-86
2021/11/29 06:07:54;;;;;;;;;;;;;;;2.14;86.39;98642.13;4936550;29;20017;-86
2021/11/29 06:10:19;;;;;;;;;;;;;;;2.15;86.00;98647.31;4936610;29;19927;-85
2021/11/29 06:12:46;;;;;;;;;;;;;;;2.09;85.78;98647.47;4935291;29;19954;-85
2021/11/29 06:15:13;;;;;;;;;;;;;;;2.09;85.63;98657.03;4936395;28;21016;-85
2021/11/29 09:01:51;;;;;;;;;;;;;;;1.57;78.71;98868.13;4982481;28;20543;-86
2021/11/29 09:04:17;;;;;;;;;;;;;;;1.61;78.67;98877.59;4983716;28;20038;-86
2021/11/29 09:06:42;;;;;;;;;;;;;;;1.55;78.31;98883.84;4982196;28;20005;-86
2021/11/29 09:09:09;;;;;;;;;;;;;;;1.58;78.30;98890.72;4983505;28;19932;-85
2021/11/29 09:11:35;;;;;;;;;;;;;;;1.54;78.23;98892.53;4983474;28;19926;-86
2021/11/29 09:14:00;;;;;;;;;;;;;;;1.56;77.97;98893.38;4982355;28;19922;-86
2021/11/29 09:16:25;;;;;;;;;;;;;;;1.56;77.78;98911.63;4982412;28;19922;-86
2021/11/29 09:18:51;;;;;;;;;;;;;;;1.56;77.59;98909.03;4982692;28;19934;-86
2021/11/29 09:21:20;;;;;;;;;;;;;;;1.53;77.25;98906.50;4983321;28;20398;-85
2021/11/29 09:23:46;;;;;;;;;;;;;;;1.54;76.87;98910.81;4997036;28;19922;-86
2021/11/29 09:26:12;;;;;;;;;;;;;;;1.61;76.85;98914.16;4983201;28;19984;-85
2021/11/29 09:28:38;;;;;;;;;;;;;;;1.58;76.81;98925.56;4982180;28;20400;-85
2021/11/29 09:31:04;;;;;;;;;;;;;;;1.58;76.66;98927.28;4980735;28;20021;-85
2021/11/29 09:33:30;;;;;;;;;;;;;;;1.59;76.62;98932.47;4982011;28;20012;-85
2021/11/29 09:35:56;;;;;;;;;;;;;;;1.53;76.70;98934.34;4984125;28;20056;-85
2021/11/29 09:38:21;;;;;;;;;;;;;;;1.49;76.79;98937.94;4982081;28;20383;-87
2021/11/29 09:40:47;;;;;;;;;;;;;;;1.54;76.61;98938.69;4982759;28;20016;-85
2021/11/29 09:43:14;;;;;;;;;;;;;;;1.61;76.49;98935.94;4981978;28;19918;-85
2021/11/29 09:45:42;;;;;;;;;;;;;;;1.55;76.57;98943.88;4983005;28;19929;-85
2021/11/29 09:48:07;;;;;;;;;;;;;;;1.54;76.43;98949.13;4981902;28;19929;-85
2021/11/29 09:50:33;;;;;;;;;;;;;;;1.56;76.43;98942.97;4973441;28;19922;-86
2021/11/29 09:52:59;;;;;;;;;;;;;;;1.56;76.36;98947.34;4983086;28;19922;-85
2021/11/29 09:55:26;;;;;;;;;;;;;;;1.60;76.54;98960.31;4983075;28;19917;-86
2021/11/29 09:57:52;;;;;;;;;;;;;;;1.60;76.40;98954.25;4982238;28;20400;-86
2021/11/29 10:00:19;;;;;;;;;;;;;;;1.66;76.44;98954.13;4997090;28;19922;-85
2021/11/29 10:02:45;;;;;;;;;;;;;;;1.66;76.10;98954.13;4996962;28;19929;-86
2021/11/29 10:05:10;;;;;;;;;;;;;;;1.67;76.29;98961.06;4966036;28;19930;-85
2021/11/29 10:07:37;;;;;;;;;;;;;;;1.65;76.15;98964.59;4965063;28;19922;-85
2021/11/29 10:10:11;;;;;;;;;;;;;;;1.64;75.90;98961.13;4982685;28;20385;-85
2021/11/29 10:12:36;;;;;;;;;;;;;;;1.67;75.96;98960.22;4981703;28;20445;-86
2021/11/29 10:15:28;;;;;;;;;;;;;;;1.68;75.81;98951.50;4983343;28;20060;-86
2021/11/29 10:18:09;;;;;;;;;;;;;;;1.70;75.85;98960.16;4994005;28;20285;-85
2021/11/29 10:20:45;;;;;;;;;;;;;;;1.69;75.73;98956.69;4982735;28;19914;-86
2021/11/29 10:23:13;;;;;;;;;;;;;;;1.70;75.65;98949.69;4982041;28;19930;-86
2021/11/29 10:25:44;;;;;;;;;;;;;;;1.74;75.63;98956.56;4996051;28;20277;-86
2021/11/29 10:28:22;;;;;;;;;;;;;;;1.73;75.77;98957.47;4980277;28;20281;-86
2021/11/29 10:31:02;;;;;;;;;;;;;;;1.72;75.73;98964.44;4982504;28;19965;-85
2021/11/29 10:33:27;;;;;;;;;;;;;;;1.72;75.59;98963.56;4981397;28;19918;-85
2021/11/29 10:35:52;;;;;;;;;;;;;;;1.78;75.83;98963.47;4983098;28;20253;-86
2021/11/29 10:38:27;;;;;;;;;;;;;;;1.75;75.65;98979.19;4965127;28;19922;-85
2021/11/29 10:40:59;;;;;;;;;;;;;;;1.81;75.65;98973.84;4981768;28;19926;-86
2021/11/29 10:43:35;;;;;;;;;;;;;;;1.79;75.71;98973.03;4979347;28;20297;-86
2021/11/29 10:46:15;;;;;;;;;;;;;;;1.78;75.73;98977.38;4981217;28;19949;-86
2021/11/29 10:48:41;;;;;;;;;;;;;;;1.79;75.56;98976.50;4982296;28;19969;-85
2021/11/29 10:51:07;;;;;;;;;;;;;;;1.78;75.58;98979.97;4982011;28;19949;-85
2021/11/29 10:53:43;;;;;;;;;;;;;;;1.83;75.52;98981.66;4964922;28;20017;-86
2021/11/29 10:56:08;;;;;;;;;;;;;;;1.84;75.46;98984.25;4997187;28;19922;-85
2021/11/29 10:58:44;;;;;;;;;;;;;;;1.87;75.39;98978.94;4964651;28;19922;-86
2021/11/29 11:01:10;;;;;;;;;;;;;;;1.86;75.06;98977.22;4961668;28;19945;-85
2021/11/29 11:03:56;;;;;;;;;;;;;;;1.88;75.18;98975.44;4963312;28;20448;-85
2021/11/29 11:06:25;;;;;;;;;;;;;;;1.95;75.31;98978.81;4961404;28;19923;-85
2021/11/29 11:08:50;;;;;;;;;;;;;;;1.95;75.17;98977.03;4961386;28;19977;-86
2021/11/29 11:11:32;;;;;;;;;;;;;;;1.93;75.26;98973.59;4962657;28;20342;-85
2021/11/29 11:13:58;;;;;;;;;;;;;;;1.95;75.15;98977.03;4961557;28;19919;-85
2021/11/29 11:16:42;;;;;;;;;;;;;;;1.95;74.86;98979.66;4961499;28;20470;-85
2021/11/29 11:19:11;;;;;;;;;;;;;;;1.97;74.66;98985.69;4965262;28;19926;-86
2021/11/29 11:21:36;;;;;;;;;;;;;;;2.02;74.74;98983.00;4966155;28;19922;-85
2021/11/29 11:24:18;;;;;;;;;;;;;;;2.01;74.58;98981.28;4965745;28;20258;-85
2021/11/29 11:26:48;;;;;;;;;;;;;;;2.02;74.29;98987.38;4965471;28;19923;-86
2021/11/29 11:29:14;;;;;;;;;;;;;;;2.04;74.34;98993.41;4963669;28;20337;-86
2021/11/29 11:31:39;;;;;;;;;;;;;;;2.04;74.40;98986.41;4966046;28;19958;-86
2021/11/29 11:34:05;;;;;;;;;;;;;;;2.05;74.30;98988.16;4972017;28;20086;-85
2021/11/29 11:36:30;;;;;;;;;;;;;;;2.08;74.25;98987.25;4964877;28;20384;-85
2021/11/29 11:39:03;;;;;;;;;;;;;;;2.06;74.12;98984.66;4964985;28;20013;-86
2021/11/29 11:41:29;;;;;;;;;;;;;;;2.07;74.00;98994.19;4995289;28;19914;-86
2021/11/29 11:43:54;;;;;;;;;;;;;;;2.09;73.82;98994.16;4964478;28;19945;-86
2021/11/29 11:46:21;;;;;;;;;;;;;;;2.11;73.65;98992.41;4972551;28;19915;-86
2021/11/29 11:48:46;;;;;;;;;;;;;;;2.10;73.65;98996.75;4965222;28;19922;-84
2021/11/29 11:51:12;;;;;;;;;;;;;;;2.12;73.49;99002.84;4963933;28;19925;-86
2021/11/29 11:53:39;;;;;;;;;;;;;;;2.13;73.35;99001.06;4965694;28;20277;-86
2021/11/29 11:56:05;;;;;;;;;;;;;;;2.15;73.29;98991.44;4963889;28;19965;-85
2021/11/29 11:58:51;;;;;;;;;;;;;;;2.18;73.34;99004.44;4964458;28;19933;-85
2021/11/29 12:01:17;;;;;;;;;;;;;;;2.15;73.00;98996.66;4979010;28;19927;-86
2021/11/29 12:03:47;;;;;;;;;;;;;;;2.15;72.94;98988.81;4984867;28;19922;-86
2021/11/29 12:06:16;;;;;;;;;;;;;;;2.19;73.08;98990.50;4984734;28;19918;-86
2021/11/29 12:08:49;;;;;;;;;;;;;;;2.22;73.05;98989.53;4983212;28;19953;-85
2021/11/29 12:11:27;;;;;;;;;;;;;;;2.22;72.82;98987.81;4985479;28;19926;-86
2021/11/29 12:14:01;;;;;;;;;;;;;;;2.26;73.10;98984.22;4983521;28;19918;-85
2021/11/29 12:16:38;;;;;;;;;;;;;;;2.27;73.05;98980.72;4983746;28;20333;-86
2021/11/29 12:19:04;;;;;;;;;;;;;;;2.27;72.90;98985.94;4983671;28;20016;-86
2021/11/29 12:21:37;;;;;;;;;;;;;;;2.28;72.90;98994.63;4984708;28;19926;-85
2021/11/29 12:24:05;;;;;;;;;;;;;;;2.29;72.73;98986.75;4984325;28;19929;-86
2021/11/29 12:26:42;;;;;;;;;;;;;;;2.30;72.61;98987.66;4967748;28;19921;-85
2021/11/29 12:29:27;;;;;;;;;;;;;;;2.29;72.46;98985.91;4965953;28;19982;-85
2021/11/29 12:32:02;;;;;;;;;;;;;;;2.32;72.71;98991.06;4983833;28;19922;-86
2021/11/29 12:34:50;;;;;;;;;;;;;;;2.32;72.44;98976.25;4973991;28;20330;-85
2021/11/29 12:37:15;;;;;;;;;;;;;;;2.34;72.27;98991.91;4975962;28;20412;-86
2021/11/29 12:39:44;;;;;;;;;;;;;;;2.38;72.43;98995.28;4966996;28;19961;-86
2021/11/29 12:42:18;;;;;;;;;;;;;;;2.38;72.46;99000.53;4973833;28;19965;-85
2021/11/29 12:44:54;;;;;;;;;;;;;;;2.41;72.72;98995.22;4972725;28;19921;-86
2021/11/29 12:47:23;;;;;;;;;;;;;;;2.42;72.71;99007.41;4997949;28;19922;-86
2021/11/29 12:49:50;;;;;;;;;;;;;;;2.49;72.90;98994.19;4996796;28;19918;-85
2021/11/29 12:52:45;;;;;;;;;;;;;;;2.75;75.25;99002.31;4966354;28;19922;-84
2021/11/29 12:55:20;;;;;;;;;;;;;;;2.96;78.07;98993.94;4986413;28;19921;-85
2021/11/29 12:57:46;;;;;;;;;;;;;;;3.08;80.47;98993.66;4981897;28;19926;-85
2021/11/29 13:00:25;;;;;;;;;;;;;;;3.12;82.20;98998.81;4982628;28;20028;-85
2021/11/29 13:02:50;;;;;;;;;;;;;;;3.15;83.83;99015.28;4997987;28;20284;-85
2021/11/29 13:05:27;;;;;;;;;;;;;;;3.16;85.17;99021.38;4983668;28;20012;-86
2021/11/29 13:08:02;;;;;;;;;;;;;;;3.13;86.52;99017.09;4973616;28;19933;-85
2021/11/29 13:10:50;;;;;;;;;;;;;;;3.09;87.66;99007.59;4966409;28;19918;-86
2021/11/29 13:13:35;;;;;;;;;;;;;;;3.10;88.86;99011.94;4976003;28;19965;-86
2021/11/29 13:16:03;;;;;;;;;;;;;;;3.16;90.02;99005.66;4973483;28;19918;-86
2021/11/29 13:18:44;;;;;;;;;;;;;;;3.15;90.49;99001.34;4965949;28;19922;-86
2021/11/29 13:21:16;;;;;;;;;;;;;;;3.16;91.59;99010.91;4973534;28;20266;-87
2021/11/29 13:23:49;;;;;;;;;;;;;;;3.11;92.78;99010.16;4980918;28;19944;-86
2021/11/29 13:26:15;;;;;;;;;;;;;;;3.09;94.41;99015.44;4980951;28;19933;-86
2021/11/29 13:28:44;;;;;;;;;;;;;;;3.18;95.71;99023.06;4982621;28;19922;-86
2021/11/29 13:31:10;;;;;;;;;;;;;;;3.25;97.51;99011.53;4982336;28;19925;-87
2021/11/29 13:33:36;;;;;;;;;;;;;;;3.40;99.60;99026.00;4983393;28;19926;-86
2021/11/29 13:36:06;;;;;;;;;;;;;;;3.57;100.00;99016.84;4982520;28;19918;-86
2021/11/29 13:38:31;;;;;;;;;;;;;;;3.77;100.00;99013.69;4983320;28;19922;-85
2021/11/29 13:40:57;;;;;;;;;;;;;;;3.82;100.00;99022.28;4966032;28;19923;-87
2021/11/29 13:43:28;;;;;;;;;;;;;;;3.94;100.00;99021.06;4980023;28;19918;-86
2021/11/29 13:45:54;;;;;;;;;;;;;;;3.99;100.00;99027.06;4972781;28;19922;-87
2021/11/29 13:48:22;;;;;;;;;;;;;;;4.06;100.00;99025.97;4996305;28;20381;-86
2021/11/29 13:50:51;;;;;;;;;;;;;;;4.14;100.00;99033.63;4983097;28;19928;-87
2021/11/29 13:53:19;;;;;;;;;;;;;;;4.23;100.00;99032.50;4982302;28;19929;-85
2021/11/29 13:55:48;;;;;;;;;;;;;;;4.27;100.00;99031.50;4965321;28;19949;-87
2021/11/29 13:58:18;;;;;;;;;;;;;;;4.83;100.00;99033.31;4981899;28;20403;-87
2021/11/29 14:00:48;;;;;;;;;;;;;;;4.62;100.00;99030.44;4981545;28;19922;-86
2021/11/29 14:03:15;;;;;;;;;;;;;;;4.57;100.00;99027.13;4998191;28;19918;-88
2021/11/29 14:05:44;;;;;;;;;;;;;;;4.55;100.00;99011.41;4996487;28;20396;-88
2021/11/29 14:08:11;;;;;;;;;;;;;;;4.57;100.00;99018.41;4998149;28;20346;-88
2021/11/29 14:10:49;;;;;;;;;;;;;;;4.59;100.00;99024.44;4982333;28;20031;-86
2021/11/29 14:13:15;;;;;;;;;;;;;;;4.64;100.00;99033.03;4963937;28;19922;-88
2021/11/29 14:15:48;;;;;;;;;;;;;;;4.65;100.00;99042.63;4982507;28;20297;-87
2021/11/29 14:18:13;;;;;;;;;;;;;;;4.68;100.00;99046.00;4982704;28;19918;-87
2021/11/29 14:20:39;;;;;;;;;;;;;;;4.73;100.00;99043.25;4982351;28;19965;-87
2021/11/29 14:23:04;;;;;;;;;;;;;;;4.74;100.00;99034.47;4982967;28;20289;-86
2021/11/29 14:25:30;;;;;;;;;;;;;;;4.78;100.00;99036.09;4982623;28;20008;-86
2021/11/29 14:27:57;;;;;;;;;;;;;;;4.02;100.00;99039.22;4981278;28;20429;-88
2021/11/29 14:30:26;;;;;;;;;;;;;;;3.59;100.00;99055.22;4982529;28;19918;-85
2021/11/29 14:32:51;;;;;;;;;;;;;;;3.36;100.00;99058.41;4982895;28;20025;-88
2021/11/29 14:35:26;;;;;;;;;;;;;;;3.26;100.00;99059.53;4981486;28;20012;-85
2021/11/29 14:37:57;;;;;;;;;;;;;;;3.16;100.00;99068.50;4997203;28;19921;-87
2021/11/29 14:40:22;;;;;;;;;;;;;;;3.14;98.92;99062.44;4982599;28;19922;-86
2021/11/29 14:42:48;;;;;;;;;;;;;;;3.05;97.51;99079.25;4980800;28;20044;-86
2021/11/29 14:45:19;;;;;;;;;;;;;;;3.06;96.01;99070.47;4982339;28;20009;-86
2021/11/29 14:47:47;;;;;;;;;;;;;;;2.95;95.02;99070.72;4982355;28;20662;-86
2021/11/29 14:50:14;;;;;;;;;;;;;;;2.85;93.70;99075.31;4995851;28;19922;-86
2021/11/29 14:52:47;;;;;;;;;;;;;;;2.86;92.62;99073.59;4980959;28;20000;-87
2021/11/29 14:55:17;;;;;;;;;;;;;;;2.75;91.55;99078.19;4976129;28;19976;-88
2021/11/29 14:57:52;;;;;;;;;;;;;;;2.69;90.61;99082.66;4983507;28;19937;-87
2021/11/29 15:00:28;;;;;;;;;;;;;;;2.68;89.86;99082.69;4976817;28;19922;-86
2021/11/29 15:03:04;;;;;;;;;;;;;;;2.59;88.78;99089.00;4984469;28;19944;-86
2021/11/29 15:05:30;;;;;;;;;;;;;;;2.56;88.12;99096.91;4968197;28;19961;-88
2021/11/29 15:07:55;;;;;;;;;;;;;;;2.54;87.50;99096.06;4967589;28;19980;-86
2021/11/29 15:10:22;;;;;;;;;;;;;;;2.46;86.93;99095.38;4985873;28;19999;-87
2021/11/29 15:12:52;;;;;;;;;;;;;;;2.40;86.49;99090.28;4966786;28;20052;-87
2021/11/29 15:15:23;;;;;;;;;;;;;;;2.34;86.22;99088.63;4985691;28;20401;-88
2021/11/29 15:17:49;;;;;;;;;;;;;;;2.31;85.51;99097.41;4986063;28;20008;-87
2021/11/29 15:20:16;;;;;;;;;;;;;;;2.26;84.96;99096.63;4986181;28;19973;-88
2021/11/29 15:22:52;;;;;;;;;;;;;;;2.28;84.91;99093.97;4985404;28;19978;-86
2021/11/29 15:25:23;;;;;;;;;;;;;;;2.27;84.74;99108.81;4985401;28;19945;-89
2021/11/29 15:27:48;;;;;;;;;;;;;;;2.24;85.08;99095.81;4984426;28;19914;-86
2021/11/29 15:30:16;;;;;;;;;;;;;;;2.18;84.18;99106.38;5000278;28;20289;-87
2021/11/29 15:32:42;;;;;;;;;;;;;;;2.15;84.20;99114.28;4984569;28;19989;-87
2021/11/29 15:35:16;;;;;;;;;;;;;;;2.14;84.18;99115.19;5000399;28;19918;-87
2021/11/29 15:37:58;;;;;;;;;;;;;;;2.19;83.84;99121.19;4984466;28;19937;-88
2021/11/29 15:40:29;;;;;;;;;;;;;;;2.04;83.58;99126.69;4984605;28;19925;-86
2021/11/29 15:42:59;;;;;;;;;;;;;;;2.02;83.52;99126.72;4983180;28;19989;-87
2021/11/29 15:45:29;;;;;;;;;;;;;;;1.99;83.48;99130.28;4983031;28;19918;-88
2021/11/29 15:47:56;;;;;;;;;;;;;;;2.03;83.04;99140.63;4985204;28;19933;-86
2021/11/29 15:50:22;;;;;;;;;;;;;;;1.98;83.37;99144.22;4983702;28;20378;-87
2021/11/29 15:52:47;;;;;;;;;;;;;;;1.93;83.16;99137.34;4984255;28;19925;-86
2021/11/29 15:55:12;;;;;;;;;;;;;;;1.90;83.02;99142.63;4984488;28;19921;-87
2021/11/29 15:57:37;;;;;;;;;;;;;;;1.93;82.99;99148.66;4984489;28;19918;-87
2021/11/29 16:00:04;;;;;;;;;;;;;;;1.89;83.07;99143.53;4983693;28;20013;-87
2021/11/29 16:02:30;;;;;;;;;;;;;;;1.84;82.93;99146.22;4967079;28;19922;-86
2021/11/29 16:04:55;;;;;;;;;;;;;;;1.84;83.05;99156.66;4998591;28;19922;-87
2021/11/29 16:07:23;;;;;;;;;;;;;;;1.84;82.70;99159.28;4982797;28;19972;-89
2021/11/29 16:09:48;;;;;;;;;;;;;;;1.80;82.51;99160.19;4984695;28;19930;-88
2021/11/29 16:12:14;;;;;;;;;;;;;;;1.77;82.55;99165.47;4983160;28;19926;-86
2021/11/29 16:14:39;;;;;;;;;;;;;;;1.74;82.63;99165.53;4982278;28;19926;-88
2021/11/29 16:17:06;;;;;;;;;;;;;;;1.79;82.56;99174.19;4985424;28;20027;-88
2021/11/29 16:19:32;;;;;;;;;;;;;;;1.79;82.57;99179.41;4982060;28;19954;-87
2021/11/29 16:21:57;;;;;;;;;;;;;;;1.76;82.52;99179.44;4984565;28;19922;-86
2021/11/29 16:24:22;;;;;;;;;;;;;;;1.70;82.13;99184.78;4984718;28;19930;-87
2021/11/29 16:26:47;;;;;;;;;;;;;;;1.66;81.97;99183.97;4982638;28;20377;-87
2021/11/29 16:29:13;;;;;;;;;;;;;;;1.65;82.00;99194.44;4983136;28;19918;-84
2021/11/29 16:31:38;;;;;;;;;;;;;;;1.64;82.47;99201.38;4983088;28;19995;-87
2021/11/29 16:34:03;;;;;;;;;;;;;;;1.67;82.52;99216.16;4982652;28;19926;-87
2021/11/29 16:36:30;;;;;;;;;;;;;;;1.65;82.08;99215.34;4966663;28;19918;-87
2021/11/29 16:38:55;;;;;;;;;;;;;;;1.61;82.23;99227.56;4982655;28;19926;-87
2021/11/29 16:41:21;;;;;;;;;;;;;;;1.58;81.78;99223.25;4982557;28;19933;-87
2021/11/29 16:43:46;;;;;;;;;;;;;;;1.57;81.64;99233.72;4996640;28;20012;-86
2021/11/29 16:46:12;;;;;;;;;;;;;;;1.58;81.57;99238.03;4983263;28;19922;-85
2021/11/29 16:48:38;;;;;;;;;;;;;;;1.53;81.58;99234.66;4997147;28;19931;-87
2021/11/29 16:51:04;;;;;;;;;;;;;;;1.56;81.40;99243.28;4995614;28;20017;-86
2021/11/29 16:53:30;;;;;;;;;;;;;;;1.54;81.42;99237.22;4966310;28;20016;-88
2021/11/29 16:55:55;;;;;;;;;;;;;;;1.48;81.36;99237.31;4983962;28;20273;-88
2021/11/29 16:58:22;;;;;;;;;;;;;;;1.48;81.27;99236.47;4964199;28;19933;-87
2021/11/29 17:00:47;;;;;;;;;;;;;;;1.45;81.09;99253.91;4980492;28;19928;-88
2021/11/29 17:03:13;;;;;;;;;;;;;;;1.45;81.24;99258.25;4998714;28;19992;-87
2021/11/29 17:05:38;;;;;;;;;;;;;;;1.42;81.34;99261.78;4982949;28;19928;-86
2021/11/29 17:08:04;;;;;;;;;;;;;;;1.42;81.36;99263.50;4982704;28;19972;-88
2021/11/29 17:10:29;;;;;;;;;;;;;;;1.44;81.25;99267.00;4966656;28;19929;-86
2021/11/29 17:12:54;;;;;;;;;;;;;;;1.39;81.31;99259.22;4981135;28;19922;-89
2021/11/29 17:15:20;;;;;;;;;;;;;;;1.39;81.25;99260.97;4982148;28;19953;-87
2021/11/29 17:17:45;;;;;;;;;;;;;;;1.44;81.28;99265.22;4964841;28;19922;-88
2021/11/29 17:20:13;;;;;;;;;;;;;;;1.41;81.07;99270.50;4965526;28;19922;-88
2021/11/29 17:22:38;;;;;;;;;;;;;;;1.37;80.76;99286.22;4983946;28;19921;-89
2021/11/29 17:25:04;;;;;;;;;;;;;;;1.38;80.87;99282.72;4982135;28;19925;-87
2021/11/29 17:27:29;;;;;;;;;;;;;;;1.38;80.94;99282.72;4979897;28;20361;-87
2021/11/29 17:29:55;;;;;;;;;;;;;;;1.34;80.61;99281.03;4965517;28;19933;-87
2021/11/29 17:32:20;;;;;;;;;;;;;;;1.36;80.58;99284.50;4997973;28;19926;-88
2021/11/29 17:34:46;;;;;;;;;;;;;;;1.34;80.70;99279.31;4982790;28;19918;-88
2021/11/29 17:37:12;;;;;;;;;;;;;;;1.37;80.49;99294.03;4965456;28;19926;-88
2021/11/29 17:39:39;;;;;;;;;;;;;;;1.34;80.24;99289.75;4980558;28;20370;-88
2021/11/29 17:42:04;;;;;;;;;;;;;;;1.33;80.19;99289.78;4997722;28;19984;-88
2021/11/29 17:44:29;;;;;;;;;;;;;;;1.35;80.18;99288.84;4981555;28;20336;-89
2021/11/29 17:46:55;;;;;;;;;;;;;;;1.30;80.12;99300.25;4965325;28;19925;-88
2021/11/29 17:49:20;;;;;;;;;;;;;;;1.32;80.21;99304.53;4980020;28;19926;-87
2021/11/29 17:51:46;;;;;;;;;;;;;;;1.27;80.04;99306.34;4965025;28;19930;-88
2021/11/29 17:54:12;;;;;;;;;;;;;;;1.33;80.12;99305.44;4983456;28;19917;-87
2021/11/29 17:56:38;;;;;;;;;;;;;;;1.31;79.96;99309.78;4964321;28;19922;-88
2021/11/29 17:59:03;;;;;;;;;;;;;;;1.31;79.84;99312.41;4964107;28;20333;-88
2021/11/29 18:01:29;;;;;;;;;;;;;;;1.29;79.70;99324.63;4961521;28;20005;-88
2021/11/29 18:03:54;;;;;;;;;;;;;;;1.29;79.58;99333.31;4963179;28;19949;-88
2021/11/29 18:06:22;;;;;;;;;;;;;;;1.30;79.63;99323.75;4959591;28;19918;-88
2021/11/29 18:09:18;;;;;;;;;;;;;;;1.25;79.59;99329.03;4961862;28;20377;-87
2021/11/29 18:14:27;;;;;;;;;;;;;;;1.26;79.35;99342.06;4961188;28;19973;-87
2021/11/29 18:16:54;;;;;;;;;;;;;;;1.26;79.35;99349.88;4961357;28;19922;-89
2021/11/29 18:19:20;;;;;;;;;;;;;;;1.25;79.42;99345.53;4961837;28;20365;-89
2021/11/29 18:21:46;;;;;;;;;;;;;;;1.27;79.33;99348.97;4962951;28;19926;-88
2021/11/29 18:24:13;;;;;;;;;;;;;;;1.23;79.16;99355.13;4963250;28;20012;-88
2021/11/29 18:26:38;;;;;;;;;;;;;;;1.21;79.18;99361.25;4961798;28;20388;-88
2021/11/29 18:29:05;;;;;;;;;;;;;;;1.24;79.29;99363.81;4969621;28;19973;-88
2021/11/29 18:31:30;;;;;;;;;;;;;;;1.29;79.20;99362.00;4965400;28;19927;-88
2021/11/29 18:33:56;;;;;;;;;;;;;;;1.23;78.89;99364.72;4963702;28;19930;-88
2021/11/29 18:36:21;;;;;;;;;;;;;;;1.23;78.67;99369.94;4964994;28;19977;-88
2021/11/29 18:38:47;;;;;;;;;;;;;;;1.22;78.53;99366.44;4965066;28;19988;-87
2021/11/29 18:41:13;;;;;;;;;;;;;;;1.21;78.63;99369.06;4966749;28;19928;-87
2021/11/29 18:43:38;;;;;;;;;;;;;;;1.20;78.57;99383.88;4965723;28;19968;-88
2021/11/29 18:46:04;;;;;;;;;;;;;;;1.22;78.51;99381.25;4965225;28;19922;-88
2021/11/29 18:48:29;;;;;;;;;;;;;;;1.24;78.31;99388.16;4966505;28;19970;-88
2021/11/29 18:50:55;;;;;;;;;;;;;;;1.19;78.35;99397.81;4966140;28;19927;-88
2021/11/29 18:53:21;;;;;;;;;;;;;;;1.22;78.54;99400.38;4964925;28;19980;-88
2021/11/29 18:55:47;;;;;;;;;;;;;;;1.24;78.44;99400.38;4967168;28;20009;-87
2021/11/29 18:58:12;;;;;;;;;;;;;;;1.23;78.22;99388.22;4963629;28;20615;-88
2021/11/29 19:00:37;;;;;;;;;;;;;;;1.19;78.12;99389.97;4972447;28;19926;-88
2021/11/29 19:03:03;;;;;;;;;;;;;;;1.17;78.62;99398.72;4964039;28;19930;-88
2021/11/29 19:05:29;;;;;;;;;;;;;;;1.17;78.35;99396.97;4965529;28;19922;-89
2021/11/29 19:07:54;;;;;;;;;;;;;;;1.18;78.33;99400.44;4965887;28;19944;-88
2021/11/29 19:10:20;;;;;;;;;;;;;;;1.21;77.95;99400.41;4965066;28;19918;-87
2021/11/29 19:12:46;;;;;;;;;;;;;;;1.21;78.17;99405.63;4963601;28;20705;-88